KLGC/LGC METAR and TAF weather

Enter ICAO airport designator
Station Type Date Time Source
KLGC METAR 2021/01/16 03:15 UTC NOAA

KLGC 160315Z AUTO 29006KT 10SM CLR 04/M09 A2981 RMK AO2 T00431091


Station Type Date Time Source
KLGC Decoded METAR 2021/01/16 03:15 UTC NOAA

La Grange, Callaway Airport, GA, United States (KLGC) 33-00-32N 085-04-21W
Jan 15, 2021 - 10:15 PM EST / 2021.01.16 0315 UTC
Wind: from the WNW (290 degrees) at 7 MPH (6 KT):0
Visibility: 10 mile(s):0
Sky conditions: clear
Temperature: 39.7 F (4.3 C)
Dew Point: 15.6 F (-9.1 C)
Relative Humidity: 37%
Pressure (altimeter): 29.81 in. Hg (1009 hPa)
ob: KLGC 160315Z AUTO 29006KT 10SM CLR 04/M09 A2981 RMK AO2 T00431091
cycle: 3

Station Type Date Time Source
KLGC TAF UTC NOAA

Error!

Example: see airport list